Accueil
Images satellite Prévisions 15 joursClimatMétéo marine Cyclones Foudre AéroportsFAQ Actualités A propos
Météo : Europe Afrique Amérique du Nord Amérique du Sud Asie Australie-Océanie Autres
Langues Contact

Bergerac, France

Roumanière

latitude: 44-49N, longitude: 000-31E, altitude: 51 m


METAR: LFBE 311000Z AUTO 27005KT 240V320 9999 BKN025 21/16 Q1021
short-TAF: LFBE 310800Z 3109/3118 25005KT CAVOK TEMPO 3114/3118 32010KT
long-TAF: périmé (52476 heures)

Heure: 12:26 (10:26 UTC)

Observation

Le bulletin a été fait il y a 26 minutes, à 10:00 UTC  
Vent 05 kt de ouest, variant entre ouest/sud-ouest et nord-ouest
Température 21°C
Humidité 73%
Pression 1021 hPa
Visibilité 10 km ou plus
Nuages fragmentés à une hauteur de 2500 ft

Changer d'unités

Prévision

Le bulletin a été fait il y a 2 heures et 10 minutes, à 08:16 UTC  
Prévision valable du 31 à 09 UTC au 31 à 18 UTC
Vent 05 kt de ouest/sud-ouest
Visibilité 10 km ou plus
pas de nuages en-dessous de 1500 mètres et pas de cumulonimbus.
Temporairement
du 31 à 14 UTC au 31 à 18 UTC
Vent 10 kt de nord-ouest
Les informations qui figurent sur ce site font l'objet d'une clause de non-responsabilité
Météo : Europe Afrique Amérique du Nord Amérique du Sud Asie Australie-Océanie Autres
Images satellite Prévisions 15 joursClimatMétéo marine Cyclones Foudre AéroportsFAQ Langues Contact Actualités A propos